Time;durP1;ratioP1;P1;durP2;ratioP2;P2;SDS_P1;SDS_P2;PMS_P1;PMS_P2;Temp;Humidity;BMP_temperature;BMP_pressure;BME280_temperature;BME280_humidity;BME280_pressure;Samples;Min_cycle;Max_cycle;Signal;HPM_P1;HPM_P2
2021/07/22 00:02:27;;;;;;;;;;;20.70;76.90;;;;;;4299163;33;44295;-85
2021/07/22 00:05:00;;;;;;;;;;;20.70;77.00;;;;;;4299589;33;44025;-85
2021/07/22 00:07:35;;;;;;;;;;;20.70;77.20;;;;;;4299649;33;45157;-85
2021/07/22 00:10:03;;;;;;;;;;;20.70;77.10;;;;;;4288568;33;44567;-85
2021/07/22 00:12:38;;;;;;;;;;;20.70;77.00;;;;;;4299243;33;45179;-84
2021/07/22 00:15:06;;;;;;;;;;;20.70;76.90;;;;;;4289493;33;20038;-84
2021/07/22 00:17:33;;;;;;;;;;;20.60;77.00;;;;;;4299179;33;45673;-84
2021/07/22 00:20:01;;;;;;;;;;;20.70;77.10;;;;;;4299437;33;45176;-84
2021/07/22 00:22:34;;;;;;;;;;;20.60;77.20;;;;;;4298997;33;44341;-85
2021/07/22 00:25:02;;;;;;;;;;;20.60;77.30;;;;;;4299348;33;43789;-85
2021/07/22 00:27:33;;;;;;;;;;;20.60;77.20;;;;;;4298987;33;44366;-85
2021/07/22 00:30:01;;;;;;;;;;;20.60;77.10;;;;;;4299155;33;44170;-84
2021/07/22 00:32:35;;;;;;;;;;;20.50;77.00;;;;;;4298916;33;42863;-85
2021/07/22 00:35:08;;;;;;;;;;;20.50;77.20;;;;;;4299235;33;44620;-84
2021/07/22 00:37:43;;;;;;;;;;;20.50;77.30;;;;;;4298838;33;43716;-84
2021/07/22 00:40:15;;;;;;;;;;;20.50;77.30;;;;;;4299128;33;45355;-85
2021/07/22 00:42:56;;;;;;;;;;;20.50;77.30;;;;;;4299176;33;45187;-85
2021/07/22 00:45:23;;;;;;;;;;;20.50;77.40;;;;;;4299620;33;20002;-85
2021/07/22 00:47:58;;;;;;;;;;;20.50;77.60;;;;;;4298830;33;45309;-85
2021/07/22 00:50:31;;;;;;;;;;;20.50;77.60;;;;;;4288171;33;44389;-85
2021/07/22 00:52:58;;;;;;;;;;;20.50;77.70;;;;;;4298886;33;45383;-86
2021/07/22 00:55:31;;;;;;;;;;;20.40;77.60;;;;;;4298939;33;45612;-84
2021/07/22 00:58:04;;;;;;;;;;;20.40;77.70;;;;;;4298550;33;44582;-85
2021/07/22 01:00:31;;;;;;;;;;;20.40;77.80;;;;;;4298807;33;45100;-85
2021/07/22 01:02:59;;;;;;;;;;;20.40;78.00;;;;;;4298179;33;43537;-85
2021/07/22 01:05:26;;;;;;;;;;;20.40;78.20;;;;;;4297689;33;44920;-85
2021/07/22 01:07:54;;;;;;;;;;;20.40;78.30;;;;;;4298255;33;44214;-86
2021/07/22 01:10:26;;;;;;;;;;;20.40;78.30;;;;;;4298118;33;45305;-85
2021/07/22 01:12:59;;;;;;;;;;;20.40;78.30;;;;;;4298664;33;43792;-86
2021/07/22 01:15:26;;;;;;;;;;;20.30;78.30;;;;;;4299548;33;19999;-86
2021/07/22 01:18:05;;;;;;;;;;;20.40;78.30;;;;;;4287611;33;45133;-86
2021/07/22 01:20:38;;;;;;;;;;;20.30;78.30;;;;;;4298582;33;45723;-86
2021/07/22 01:23:17;;;;;;;;;;;20.30;78.40;;;;;;4298382;33;45377;-85
2021/07/22 01:25:51;;;;;;;;;;;20.30;78.40;;;;;;4287662;33;44204;-85
2021/07/22 01:28:24;;;;;;;;;;;20.30;78.30;;;;;;4298616;33;43345;-86
2021/07/22 01:31:02;;;;;;;;;;;20.20;78.20;;;;;;4298473;33;45806;-86
2021/07/22 01:33:35;;;;;;;;;;;20.20;78.30;;;;;;4298569;33;45747;-86
2021/07/22 01:36:10;;;;;;;;;;;20.20;78.30;;;;;;4297972;33;44902;-86
2021/07/22 01:38:49;;;;;;;;;;;20.10;78.30;;;;;;4298324;33;44283;-86
2021/07/22 01:41:21;;;;;;;;;;;20.10;78.60;;;;;;4298287;33;45225;-86
2021/07/22 01:43:49;;;;;;;;;;;20.00;79.10;;;;;;4298583;33;44907;-87
2021/07/22 01:46:20;;;;;;;;;;;20.10;78.70;;;;;;4297822;33;44491;-86
2021/07/22 01:48:53;;;;;;;;;;;20.00;78.70;;;;;;4298061;33;44399;-86
2021/07/22 01:51:31;;;;;;;;;;;20.00;78.70;;;;;;4298167;33;44315;-87
2021/07/22 01:54:04;;;;;;;;;;;20.00;78.70;;;;;;4298283;33;42630;-86
2021/07/22 01:56:37;;;;;;;;;;;20.00;78.80;;;;;;4298172;33;43222;-86
2021/07/22 01:59:12;;;;;;;;;;;20.00;78.80;;;;;;4298086;33;42516;-86
2021/07/22 02:01:48;;;;;;;;;;;20.00;78.90;;;;;;4287147;33;44353;-86
2021/07/22 02:04:16;;;;;;;;;;;20.00;78.90;;;;;;4298216;33;45029;-86
2021/07/22 02:06:46;;;;;;;;;;;20.00;78.90;;;;;;4298190;33;45293;-86
2021/07/22 02:09:13;;;;;;;;;;;19.90;79.00;;;;;;4298109;33;45691;-86
2021/07/22 02:11:49;;;;;;;;;;;19.90;79.10;;;;;;4297798;33;45455;-85
2021/07/22 02:14:22;;;;;;;;;;;19.90;79.20;;;;;;4298102;33;45345;-86
2021/07/22 02:17:01;;;;;;;;;;;19.90;79.40;;;;;;4298615;33;20010;-86
2021/07/22 02:19:36;;;;;;;;;;;19.90;79.50;;;;;;4297994;33;44221;-86
2021/07/22 02:22:09;;;;;;;;;;;19.90;79.40;;;;;;4297998;33;44071;-86
2021/07/22 02:24:44;;;;;;;;;;;19.90;79.50;;;;;;4298062;33;45287;-86
2021/07/22 02:27:23;;;;;;;;;;;19.90;79.50;;;;;;4297983;33;45138;-85
2021/07/22 02:30:01;;;;;;;;;;;19.90;79.50;;;;;;4298048;33;44780;-86
2021/07/22 02:32:37;;;;;;;;;;;19.90;79.50;;;;;;4298111;33;42887;-86
2021/07/22 02:35:10;;;;;;;;;;;19.90;79.50;;;;;;4297919;33;45448;-86
2021/07/22 02:37:50;;;;;;;;;;;19.90;79.60;;;;;;4286986;33;44422;-87
2021/07/22 02:40:17;;;;;;;;;;;19.90;79.60;;;;;;4297666;33;44059;-86
2021/07/22 02:42:50;;;;;;;;;;;19.80;79.50;;;;;;4297820;33;45214;-86
2021/07/22 02:45:22;;;;;;;;;;;19.80;79.60;;;;;;4297826;33;44019;-86
2021/07/22 02:47:55;;;;;;;;;;;19.80;79.70;;;;;;4299104;33;20069;-86
2021/07/22 02:50:37;;;;;;;;;;;19.80;79.90;;;;;;4297544;33;45496;-86
2021/07/22 02:53:12;;;;;;;;;;;19.80;80.00;;;;;;4297796;33;44188;-86
2021/07/22 02:55:45;;;;;;;;;;;19.80;80.10;;;;;;4286758;33;43894;-86
2021/07/22 02:58:23;;;;;;;;;;;19.80;80.10;;;;;;4297665;33;42476;-86
2021/07/22 03:00:52;;;;;;;;;;;19.80;80.30;;;;;;4297446;33;43293;-86
2021/07/22 03:03:22;;;;;;;;;;;19.80;80.40;;;;;;4297305;33;44455;-85
2021/07/22 03:05:52;;;;;;;;;;;19.80;80.50;;;;;;4297124;33;45290;-86
2021/07/22 03:08:22;;;;;;;;;;;19.80;80.50;;;;;;4296974;33;43490;-86
2021/07/22 03:10:50;;;;;;;;;;;19.80;80.50;;;;;;4297578;33;43897;-86
2021/07/22 03:13:22;;;;;;;;;;;19.80;80.60;;;;;;4297282;33;42020;-86
2021/07/22 03:15:50;;;;;;;;;;;19.80;80.70;;;;;;4297523;33;45696;-85
2021/07/22 03:18:18;;;;;;;;;;;19.70;80.60;;;;;;4298129;33;20004;-85
2021/07/22 03:20:48;;;;;;;;;;;19.70;80.50;;;;;;4297213;33;45480;-85
2021/07/22 03:23:20;;;;;;;;;;;19.70;80.50;;;;;;4297434;33;45683;-85
2021/07/22 03:25:56;;;;;;;;;;;19.70;80.60;;;;;;4296548;33;43467;-85
2021/07/22 03:28:30;;;;;;;;;;;19.70;80.80;;;;;;4298911;33;43915;-85
2021/07/22 03:31:00;;;;;;;;;;;19.70;80.70;;;;;;4300138;33;45246;-85
2021/07/22 03:33:33;;;;;;;;;;;19.70;80.70;;;;;;4300126;33;44736;-85
2021/07/22 03:36:02;;;;;;;;;;;19.70;80.80;;;;;;4299932;33;45457;-85
2021/07/22 03:38:29;;;;;;;;;;;19.60;80.50;;;;;;4288627;33;45247;-85
2021/07/22 03:40:56;;;;;;;;;;;19.60;80.40;;;;;;4299754;33;45050;-85
2021/07/22 03:43:24;;;;;;;;;;;19.60;81.30;;;;;;4299824;33;45521;-85
2021/07/22 03:46:00;;;;;;;;;;;19.60;80.70;;;;;;4299870;33;44082;-85
2021/07/22 03:48:33;;;;;;;;;;;19.60;80.90;;;;;;4300376;33;20050;-85
2021/07/22 03:51:00;;;;;;;;;;;19.60;80.90;;;;;;4299443;33;42973;-85
2021/07/22 03:53:28;;;;;;;;;;;19.60;80.90;;;;;;4299411;33;44158;-85
2021/07/22 03:56:00;;;;;;;;;;;19.50;80.80;;;;;;4288369;33;44040;-84
2021/07/22 03:58:28;;;;;;;;;;;19.50;80.80;;;;;;4299782;33;45569;-84
2021/07/22 04:00:59;;;;;;;;;;;19.50;81.00;;;;;;4299458;33;46057;-85
2021/07/22 04:03:26;;;;;;;;;;;19.50;81.20;;;;;;4288360;33;43136;-85
2021/07/22 04:05:59;;;;;;;;;;;19.50;81.30;;;;;;4299118;33;43934;-84
2021/07/22 04:08:32;;;;;;;;;;;19.50;81.40;;;;;;4299581;33;44356;-85
2021/07/22 04:11:06;;;;;;;;;;;19.50;81.40;;;;;;4299489;33;45401;-84
2021/07/22 04:13:33;;;;;;;;;;;19.50;81.40;;;;;;4299416;33;44355;-85
2021/07/22 04:16:06;;;;;;;;;;;19.50;81.60;;;;;;4299409;33;43882;-85
2021/07/22 04:18:41;;;;;;;;;;;19.50;81.50;;;;;;4299934;33;20014;-85
2021/07/22 04:21:14;;;;;;;;;;;19.50;81.60;;;;;;4299460;33;42493;-84
2021/07/22 04:23:47;;;;;;;;;;;19.40;81.50;;;;;;4299437;33;45362;-85
2021/07/22 04:26:20;;;;;;;;;;;19.40;81.60;;;;;;4299225;33;43961;-85
2021/07/22 04:28:47;;;;;;;;;;;19.40;81.80;;;;;;4299622;33;44365;-85
2021/07/22 04:31:20;;;;;;;;;;;19.40;81.80;;;;;;4299170;33;45390;-84
2021/07/22 04:33:53;;;;;;;;;;;19.40;82.00;;;;;;4299167;33;44322;-84
2021/07/22 04:36:25;;;;;;;;;;;19.30;82.00;;;;;;4299239;33;44002;-84
2021/07/22 04:38:58;;;;;;;;;;;19.30;82.10;;;;;;4298343;33;42423;-84
2021/07/22 04:41:31;;;;;;;;;;;19.30;82.20;;;;;;4299085;33;45401;-85
2021/07/22 04:44:10;;;;;;;;;;;19.30;82.30;;;;;;4299184;33;43485;-84
2021/07/22 04:46:42;;;;;;;;;;;19.30;82.40;;;;;;4299026;33;44751;-84
2021/07/22 04:49:18;;;;;;;;;;;19.30;82.40;;;;;;4300010;33;20015;-85
2021/07/22 04:51:51;;;;;;;;;;;19.30;82.40;;;;;;4299141;33;45726;-84
2021/07/22 04:54:18;;;;;;;;;;;19.20;82.40;;;;;;4287130;33;44553;-85
2021/07/22 04:56:48;;;;;;;;;;;19.20;82.50;;;;;;4298978;33;44300;-84
2021/07/22 04:59:21;;;;;;;;;;;19.20;82.60;;;;;;4287897;33;44900;-84
2021/07/22 05:01:54;;;;;;;;;;;19.30;82.70;;;;;;4298468;33;44377;-84
2021/07/22 05:04:27;;;;;;;;;;;19.20;82.90;;;;;;4298825;33;44255;-84
2021/07/22 05:06:59;;;;;;;;;;;19.20;83.00;;;;;;4287891;33;45199;-84
2021/07/22 05:09:30;;;;;;;;;;;19.10;83.10;;;;;;4298800;33;45027;-83
2021/07/22 05:12:02;;;;;;;;;;;19.20;83.30;;;;;;4298635;33;44938;-84
2021/07/22 05:14:35;;;;;;;;;;;19.10;83.30;;;;;;4298666;33;44446;-84
2021/07/22 05:17:08;;;;;;;;;;;19.20;83.50;;;;;;4298655;33;44642;-83
2021/07/22 05:19:35;;;;;;;;;;;19.10;83.50;;;;;;4299536;33;20049;-85
2021/07/22 05:22:08;;;;;;;;;;;19.20;83.60;;;;;;4298555;33;45529;-84
2021/07/22 05:24:41;;;;;;;;;;;19.20;83.50;;;;;;4298378;33;44713;-84
2021/07/22 05:27:14;;;;;;;;;;;19.10;83.60;;;;;;4298550;33;43120;-84
2021/07/22 05:29:47;;;;;;;;;;;19.10;83.90;;;;;;4298349;33;44134;-84
2021/07/22 05:32:22;;;;;;;;;;;19.10;84.10;;;;;;4298342;33;45766;-84
2021/07/22 05:34:55;;;;;;;;;;;19.10;84.10;;;;;;4298410;33;44402;-84
2021/07/22 05:37:25;;;;;;;;;;;19.10;84.30;;;;;;4297958;33;43880;-84
2021/07/22 05:39:58;;;;;;;;;;;19.10;84.60;;;;;;4297865;33;45416;-84
2021/07/22 05:42:33;;;;;;;;;;;19.10;84.70;;;;;;4298309;33;45731;-84
2021/07/22 05:45:06;;;;;;;;;;;19.10;84.70;;;;;;4287506;33;44177;-85
2021/07/22 05:47:33;;;;;;;;;;;19.20;84.80;;;;;;4297782;33;43450;-85
2021/07/22 05:50:01;;;;;;;;;;;19.10;84.90;;;;;;4298078;33;43898;-84
2021/07/22 05:52:31;;;;;;;;;;;19.10;85.00;;;;;;4298055;33;44117;-84
2021/07/22 05:54:59;;;;;;;;;;;19.20;85.20;;;;;;4298138;33;44456;-84
2021/07/22 05:57:26;;;;;;;;;;;19.20;85.30;;;;;;4298058;33;43959;-84
2021/07/22 05:59:54;;;;;;;;;;;19.20;85.30;;;;;;4297794;33;45349;-84
2021/07/22 06:02:21;;;;;;;;;;;19.20;85.40;;;;;;4297578;33;44094;-84
2021/07/22 06:04:52;;;;;;;;;;;19.20;85.50;;;;;;4286636;33;44876;-84
2021/07/22 06:07:20;;;;;;;;;;;19.20;85.60;;;;;;4287220;33;44155;-85
2021/07/22 06:09:52;;;;;;;;;;;19.20;85.80;;;;;;4297753;33;43915;-84
2021/07/22 06:12:22;;;;;;;;;;;19.20;86.10;;;;;;4297830;33;43931;-84
2021/07/22 06:14:49;;;;;;;;;;;19.20;86.20;;;;;;4297881;33;45418;-85
2021/07/22 06:17:16;;;;;;;;;;;19.20;86.50;;;;;;4297485;33;45376;-84
2021/07/22 06:19:43;;;;;;;;;;;19.20;86.60;;;;;;4297468;33;44470;-84
2021/07/22 06:22:13;;;;;;;;;;;19.20;86.70;;;;;;4296981;33;44295;-84
2021/07/22 06:24:54;;;;;;;;;;;19.20;86.60;;;;;;4297248;33;45725;-84
2021/07/22 06:27:21;;;;;;;;;;;19.20;86.50;;;;;;4297844;33;44160;-87
2021/07/22 06:29:49;;;;;;;;;;;19.20;86.60;;;;;;4297766;33;44594;-87
2021/07/22 06:32:16;;;;;;;;;;;19.20;86.70;;;;;;4297470;33;43495;-85
2021/07/22 06:34:46;;;;;;;;;;;19.30;86.60;;;;;;4297692;33;43995;-87
2021/07/22 06:37:14;;;;;;;;;;;19.30;86.60;;;;;;4297971;33;43938;-87
2021/07/22 06:39:43;;;;;;;;;;;19.30;86.50;;;;;;4297640;33;44038;-86
2021/07/22 06:42:15;;;;;;;;;;;19.30;86.40;;;;;;4297604;33;45215;-86
2021/07/22 06:44:43;;;;;;;;;;;19.30;86.40;;;;;;4297539;33;43927;-86
2021/07/22 06:47:13;;;;;;;;;;;19.30;86.30;;;;;;4297767;33;44551;-86
2021/07/22 06:49:46;;;;;;;;;;;19.30;86.40;;;;;;4297719;33;42337;-86
2021/07/22 06:52:17;;;;;;;;;;;19.30;86.30;;;;;;4297660;33;43758;-86
2021/07/22 06:54:45;;;;;;;;;;;19.30;86.30;;;;;;4297523;33;44361;-86
2021/07/22 06:57:15;;;;;;;;;;;19.30;86.30;;;;;;4297225;33;44771;-85
2021/07/22 06:59:47;;;;;;;;;;;19.30;86.20;;;;;;4297645;33;44149;-87
2021/07/22 07:02:15;;;;;;;;;;;19.40;86.40;;;;;;4286712;33;43991;-87
2021/07/22 07:04:42;;;;;;;;;;;19.40;86.40;;;;;;4300405;33;43976;-86
2021/07/22 07:07:09;;;;;;;;;;;19.40;86.20;;;;;;4299888;33;43597;-85
2021/07/22 07:09:40;;;;;;;;;;;19.40;86.30;;;;;;4300013;33;43118;-86
2021/07/22 07:12:15;;;;;;;;;;;19.40;86.30;;;;;;4300050;33;43997;-86
2021/07/22 07:14:53;;;;;;;;;;;19.40;86.30;;;;;;4299769;33;44577;-86
2021/07/22 07:17:23;;;;;;;;;;;19.50;86.30;;;;;;4289455;33;44509;-86
2021/07/22 07:19:53;;;;;;;;;;;19.50;86.30;;;;;;4299971;33;43178;-87
2021/07/22 07:22:26;;;;;;;;;;;19.50;86.40;;;;;;4300252;33;45388;-86
2021/07/22 07:24:56;;;;;;;;;;;19.50;86.40;;;;;;4300214;33;45402;-87
2021/07/22 07:27:24;;;;;;;;;;;19.50;86.30;;;;;;4289172;33;44360;-87
2021/07/22 07:29:54;;;;;;;;;;;19.60;86.40;;;;;;4299916;33;44220;-87
2021/07/22 07:32:26;;;;;;;;;;;19.60;86.30;;;;;;4299917;33;45122;-86
2021/07/22 07:34:53;;;;;;;;;;;19.60;86.40;;;;;;4300139;33;43543;-86
2021/07/22 07:37:28;;;;;;;;;;;19.60;86.40;;;;;;4299802;33;44507;-86
2021/07/22 07:39:59;;;;;;;;;;;19.60;86.30;;;;;;4299851;33;45348;-86
2021/07/22 07:42:37;;;;;;;;;;;19.60;86.30;;;;;;4299662;33;44320;-86
2021/07/22 07:45:07;;;;;;;;;;;19.60;86.10;;;;;;4299886;33;44419;-85
2021/07/22 07:47:40;;;;;;;;;;;19.60;86.10;;;;;;4299395;33;43869;-87
2021/07/22 07:50:11;;;;;;;;;;;19.70;86.00;;;;;;4299530;33;43479;-87
2021/07/22 07:52:43;;;;;;;;;;;19.70;86.00;;;;;;4288468;33;44342;-86
2021/07/22 07:55:19;;;;;;;;;;;19.70;85.90;;;;;;4299747;33;44457;-87
2021/07/22 07:57:52;;;;;;;;;;;19.70;85.90;;;;;;4299641;33;43120;-86
2021/07/22 08:00:21;;;;;;;;;;;19.70;85.80;;;;;;4299571;33;44051;-86
2021/07/22 08:02:58;;;;;;;;;;;19.70;85.90;;;;;;4288417;33;43634;-86
2021/07/22 08:05:33;;;;;;;;;;;19.70;85.80;;;;;;4288254;33;44732;-86
2021/07/22 08:08:03;;;;;;;;;;;19.70;85.90;;;;;;4300146;33;43483;-86
2021/07/22 08:10:40;;;;;;;;;;;19.70;85.90;;;;;;4288376;33;43470;-86
2021/07/22 08:13:08;;;;;;;;;;;19.80;85.90;;;;;;4288517;33;44903;-86
2021/07/22 08:15:36;;;;;;;;;;;19.80;85.90;;;;;;4299450;33;44770;-87
2021/07/22 08:18:06;;;;;;;;;;;19.80;85.90;;;;;;4288583;33;44237;-86
2021/07/22 08:20:38;;;;;;;;;;;19.80;85.80;;;;;;4299210;33;45524;-86
2021/07/22 08:23:06;;;;;;;;;;;19.80;85.80;;;;;;4300080;33;20061;-86
2021/07/22 08:25:36;;;;;;;;;;;19.80;85.80;;;;;;4299187;33;44340;-86
2021/07/22 08:28:08;;;;;;;;;;;19.90;86.20;;;;;;4298945;33;44355;-86
2021/07/22 08:30:41;;;;;;;;;;;19.80;86.10;;;;;;4288513;33;45092;-86
2021/07/22 08:33:11;;;;;;;;;;;19.90;86.00;;;;;;4287899;33;44024;-86
2021/07/22 08:35:44;;;;;;;;;;;19.90;86.10;;;;;;4299208;33;44248;-86
2021/07/22 08:38:12;;;;;;;;;;;19.90;86.00;;;;;;4298748;33;44577;-86
2021/07/22 08:40:42;;;;;;;;;;;19.90;86.00;;;;;;4299445;33;44000;-85
2021/07/22 08:43:20;;;;;;;;;;;19.90;86.00;;;;;;4298849;33;44089;-86
2021/07/22 08:45:56;;;;;;;;;;;19.90;85.90;;;;;;4288083;33;45029;-86
2021/07/22 08:48:27;;;;;;;;;;;20.00;86.00;;;;;;4287671;33;42888;-86
2021/07/22 08:51:01;;;;;;;;;;;20.00;85.80;;;;;;4288169;33;45129;-85
2021/07/22 08:53:33;;;;;;;;;;;20.00;85.80;;;;;;4299337;33;20030;-85
2021/07/22 08:56:01;;;;;;;;;;;20.00;85.80;;;;;;4287940;33;44328;-85
2021/07/22 08:58:28;;;;;;;;;;;20.00;85.80;;;;;;4298438;33;43428;-85
2021/07/22 09:01:00;;;;;;;;;;;20.00;85.70;;;;;;4298605;33;44328;-84
2021/07/22 09:03:27;;;;;;;;;;;20.00;85.60;;;;;;4287415;33;42851;-86
2021/07/22 09:05:56;;;;;;;;;;;20.00;85.50;;;;;;4298416;33;42798;-86
2021/07/22 09:08:23;;;;;;;;;;;20.10;85.60;;;;;;4298182;33;43070;-86
2021/07/22 09:11:06;;;;;;;;;;;20.10;85.60;;;;;;4298599;33;45475;-86
2021/07/22 09:13:35;;;;;;;;;;;20.10;85.60;;;;;;4298306;33;43215;-86
2021/07/22 09:16:03;;;;;;;;;;;20.10;85.60;;;;;;4297955;33;44798;-85
2021/07/22 09:18:36;;;;;;;;;;;20.10;85.60;;;;;;4298324;33;44581;-85
2021/07/22 09:21:21;;;;;;;;;;;20.10;85.60;;;;;;4298456;33;43245;-85
2021/07/22 09:24:02;;;;;;;;;;;20.10;85.70;;;;;;4288572;33;20408;-84
2021/07/22 09:26:38;;;;;;;;;;;20.20;85.70;;;;;;4298065;33;44906;-86
2021/07/22 09:29:14;;;;;;;;;;;20.20;86.60;;;;;;4298043;33;43438;-86
2021/07/22 09:31:43;;;;;;;;;;;20.20;85.70;;;;;;4287627;33;43980;-86
2021/07/22 09:34:18;;;;;;;;;;;20.20;85.60;;;;;;4297947;33;43445;-85
2021/07/22 09:36:48;;;;;;;;;;;20.20;85.50;;;;;;4286935;33;46051;-86
2021/07/22 09:39:25;;;;;;;;;;;20.20;85.50;;;;;;4298449;33;42460;-85
2021/07/22 09:42:03;;;;;;;;;;;20.20;85.40;;;;;;4298258;33;44423;-87
2021/07/22 09:44:38;;;;;;;;;;;20.20;85.50;;;;;;4298422;33;43903;-86
2021/07/22 09:47:07;;;;;;;;;;;20.30;85.50;;;;;;4287501;33;45385;-86
2021/07/22 09:49:34;;;;;;;;;;;20.30;85.50;;;;;;4287238;33;44002;-86
2021/07/22 09:52:02;;;;;;;;;;;20.30;85.60;;;;;;4287237;33;44096;-86
2021/07/22 09:54:34;;;;;;;;;;;20.30;85.60;;;;;;4298171;33;44390;-87
2021/07/22 09:57:04;;;;;;;;;;;20.30;85.60;;;;;;4298062;33;44018;-86
2021/07/22 09:59:34;;;;;;;;;;;20.40;85.50;;;;;;4287194;33;44241;-85
2021/07/22 10:02:06;;;;;;;;;;;20.40;85.60;;;;;;4286688;33;44370;-86
2021/07/22 10:04:37;;;;;;;;;;;20.40;85.60;;;;;;4286876;33;43718;-84
2021/07/22 10:07:13;;;;;;;;;;;20.40;85.50;;;;;;4297954;33;45496;-86
2021/07/22 10:09:45;;;;;;;;;;;20.40;85.60;;;;;;4287315;33;43169;-86
2021/07/22 10:12:16;;;;;;;;;;;20.40;85.50;;;;;;4297920;33;43210;-85
2021/07/22 10:14:46;;;;;;;;;;;20.40;85.50;;;;;;4297787;33;43263;-85
2021/07/22 10:17:13;;;;;;;;;;;20.40;85.60;;;;;;4297449;33;44161;-87
2021/07/22 10:19:41;;;;;;;;;;;20.40;85.60;;;;;;4297384;33;43647;-83
2021/07/22 10:22:09;;;;;;;;;;;20.50;85.60;;;;;;4297532;33;44021;-85
2021/07/22 10:24:48;;;;;;;;;;;20.50;85.60;;;;;;4298350;33;20006;-84
2021/07/22 10:27:18;;;;;;;;;;;20.50;85.60;;;;;;4287090;33;44762;-84
2021/07/22 10:29:52;;;;;;;;;;;20.50;85.50;;;;;;4286919;33;44448;-85
2021/07/22 10:32:25;;;;;;;;;;;20.50;86.30;;;;;;4287127;33;44429;-84
2021/07/22 10:34:58;;;;;;;;;;;20.60;85.60;;;;;;4297879;33;43344;-85
2021/07/22 10:37:31;;;;;;;;;;;20.60;85.60;;;;;;4287585;33;44177;-85
2021/07/22 10:40:05;;;;;;;;;;;20.60;85.50;;;;;;4289550;33;42357;-86
2021/07/22 10:42:46;;;;;;;;;;;20.70;85.50;;;;;;4289977;33;43365;-84
2021/07/22 10:45:21;;;;;;;;;;;20.70;85.50;;;;;;4300708;33;45274;-85
2021/07/22 10:47:58;;;;;;;;;;;20.70;85.60;;;;;;4300178;33;44357;-85
2021/07/22 10:50:49;;;;;;;;;;;20.70;85.50;;;;;;4289853;33;43387;-85
2021/07/22 10:53:36;;;;;;;;;;;20.70;85.50;;;;;;4301846;33;44843;-86
2021/07/22 10:56:08;;;;;;;;;;;20.70;85.50;;;;;;4301398;33;20042;-83
2021/07/22 10:58:37;;;;;;;;;;;20.80;86.40;;;;;;4300431;33;43991;-85
2021/07/22 11:01:10;;;;;;;;;;;20.80;85.60;;;;;;4289047;33;44173;-85
2021/07/22 11:03:47;;;;;;;;;;;20.80;85.50;;;;;;4289028;33;44697;-86
2021/07/22 11:06:22;;;;;;;;;;;20.80;85.50;;;;;;4289725;33;44364;-84
2021/07/22 11:09:05;;;;;;;;;;;20.80;85.50;;;;;;4289505;33;45734;-85
2021/07/22 11:12:01;;;;;;;;;;;20.90;85.60;;;;;;4289715;33;42271;-84
2021/07/22 11:14:37;;;;;;;;;;;20.90;85.50;;;;;;4302783;33;43645;-85
2021/07/22 11:17:05;;;;;;;;;;;20.90;85.60;;;;;;4299920;33;42807;-83
2021/07/22 11:19:38;;;;;;;;;;;21.00;85.50;;;;;;4299700;33;44810;-84
2021/07/22 11:22:09;;;;;;;;;;;21.00;85.50;;;;;;4299764;33;44100;-85
2021/07/22 11:24:42;;;;;;;;;;;21.00;85.50;;;;;;4299895;33;42550;-82
2021/07/22 11:27:10;;;;;;;;;;;21.00;85.50;;;;;;4290329;33;20006;-85
2021/07/22 11:29:43;;;;;;;;;;;21.10;85.60;;;;;;4289085;33;44136;-85
2021/07/22 11:32:23;;;;;;;;;;;21.10;85.40;;;;;;4289283;33;45651;-86
2021/07/22 11:35:00;;;;;;;;;;;21.10;85.40;;;;;;4289208;33;43272;-86
2021/07/22 11:37:28;;;;;;;;;;;21.10;85.50;;;;;;4289318;33;43898;-85
2021/07/22 11:40:05;;;;;;;;;;;21.10;85.50;;;;;;4288658;33;43494;-83
2021/07/22 11:42:50;;;;;;;;;;;21.20;85.60;;;;;;4299484;33;43220;-83
2021/07/22 11:45:18;;;;;;;;;;;21.20;85.60;;;;;;4299803;33;43705;-86
2021/07/22 11:47:52;;;;;;;;;;;21.20;85.60;;;;;;4288926;33;44032;-84
2021/07/22 11:50:27;;;;;;;;;;;21.20;85.60;;;;;;4299281;33;43489;-84
2021/07/22 11:52:57;;;;;;;;;;;21.20;85.60;;;;;;4299968;33;44246;-84
2021/07/22 11:55:27;;;;;;;;;;;21.30;85.60;;;;;;4299252;33;43773;-84
2021/07/22 11:57:58;;;;;;;;;;;21.30;85.60;;;;;;4300363;33;20010;-84
2021/07/22 12:00:25;;;;;;;;;;;21.40;85.60;;;;;;4288600;33;43493;-85
2021/07/22 12:02:55;;;;;;;;;;;21.30;85.50;;;;;;4288763;33;44125;-84
2021/07/22 12:05:30;;;;;;;;;;;21.40;85.50;;;;;;4299620;33;43873;-83
2021/07/22 12:08:18;;;;;;;;;;;21.40;85.60;;;;;;4299604;33;44812;-83
2021/07/22 12:10:49;;;;;;;;;;;21.40;85.60;;;;;;4299452;33;43476;-84
2021/07/22 12:13:19;;;;;;;;;;;21.40;85.40;;;;;;4299455;33;46086;-83
2021/07/22 12:15:47;;;;;;;;;;;21.40;85.50;;;;;;4299294;33;43898;-83
2021/07/22 12:18:18;;;;;;;;;;;21.40;85.50;;;;;;4299503;33;42176;-83
2021/07/22 12:20:52;;;;;;;;;;;21.40;85.40;;;;;;4299309;33;42878;-84
2021/07/22 12:23:30;;;;;;;;;;;21.40;85.80;;;;;;4299546;33;44162;-83
2021/07/22 12:26:03;;;;;;;;;;;21.40;85.40;;;;;;4299476;33;43123;-83
2021/07/22 12:28:31;;;;;;;;;;;21.40;85.40;;;;;;4289318;33;20061;-85
2021/07/22 12:31:18;;;;;;;;;;;21.50;85.50;;;;;;4288494;33;44189;-83
2021/07/22 12:33:58;;;;;;;;;;;21.50;85.50;;;;;;4288405;33;43890;-82
2021/07/22 12:36:33;;;;;;;;;;;21.50;85.40;;;;;;4299181;33;45421;-82
2021/07/22 12:39:15;;;;;;;;;;;21.50;85.40;;;;;;4298789;33;42902;-82
2021/07/22 12:41:46;;;;;;;;;;;21.60;85.40;;;;;;4288188;33;43878;-83
2021/07/22 12:44:33;;;;;;;;;;;21.60;85.30;;;;;;4299159;33;44791;-84
2021/07/22 12:47:23;;;;;;;;;;;21.60;85.30;;;;;;4298694;33;42516;-83
2021/07/22 12:49:56;;;;;;;;;;;21.60;85.30;;;;;;4299005;33;45271;-83
2021/07/22 12:52:29;;;;;;;;;;;21.60;85.50;;;;;;4288118;33;44419;-83
2021/07/22 12:55:02;;;;;;;;;;;21.60;85.40;;;;;;4298520;33;44193;-83
2021/07/22 12:57:38;;;;;;;;;;;21.70;85.50;;;;;;4288209;33;43947;-83
2021/07/22 13:00:09;;;;;;;;;;;21.60;85.50;;;;;;4297866;33;45094;-84
2021/07/22 13:02:36;;;;;;;;;;;21.70;85.50;;;;;;4298569;33;45934;-83
2021/07/22 13:05:05;;;;;;;;;;;21.70;85.50;;;;;;4287469;33;44271;-83
2021/07/22 13:07:35;;;;;;;;;;;21.70;85.40;;;;;;4298717;33;44276;-84
2021/07/22 13:10:06;;;;;;;;;;;21.70;85.50;;;;;;4298356;33;44180;-83
2021/07/22 13:12:41;;;;;;;;;;;21.80;85.50;;;;;;4298707;33;44488;-83
2021/07/22 13:15:11;;;;;;;;;;;21.80;85.50;;;;;;4298579;33;45538;-84
2021/07/22 13:17:41;;;;;;;;;;;21.80;85.40;;;;;;4298633;33;44110;-84
2021/07/22 13:20:09;;;;;;;;;;;21.80;85.40;;;;;;4297988;33;43874;-84
2021/07/22 13:22:39;;;;;;;;;;;21.90;85.50;;;;;;4298237;33;43248;-85
2021/07/22 13:25:12;;;;;;;;;;;21.90;85.50;;;;;;4297951;33;43075;-84
2021/07/22 13:27:45;;;;;;;;;;;21.90;85.50;;;;;;4298554;33;44481;-83
2021/07/22 13:30:17;;;;;;;;;;;21.90;85.50;;;;;;4299248;33;19999;-83
2021/07/22 13:32:47;;;;;;;;;;;21.90;85.50;;;;;;4287600;33;44763;-84
2021/07/22 13:35:26;;;;;;;;;;;22.00;85.60;;;;;;4298078;33;44278;-84
2021/07/22 13:38:00;;;;;;;;;;;22.00;85.60;;;;;;4298111;33;45692;-83
2021/07/22 13:40:40;;;;;;;;;;;22.00;85.60;;;;;;4287560;33;43922;-84
2021/07/22 13:43:13;;;;;;;;;;;22.10;85.70;;;;;;4298411;33;45792;-82
2021/07/22 13:45:51;;;;;;;;;;;22.10;85.60;;;;;;4287403;33;43818;-83
2021/07/22 13:48:24;;;;;;;;;;;22.10;85.60;;;;;;4298268;33;43418;-83
2021/07/22 13:50:51;;;;;;;;;;;22.20;85.70;;;;;;4298266;33;44451;-80
2021/07/22 13:53:18;;;;;;;;;;;22.20;85.70;;;;;;4287197;33;43020;-84
2021/07/22 13:55:46;;;;;;;;;;;22.20;85.50;;;;;;4297971;33;45413;-82
2021/07/22 13:58:13;;;;;;;;;;;22.20;85.70;;;;;;4298122;33;44400;-82
2021/07/22 14:00:46;;;;;;;;;;;22.30;85.60;;;;;;4298646;33;20010;-83
2021/07/22 14:03:19;;;;;;;;;;;22.30;85.50;;;;;;4286607;33;43586;-83
2021/07/22 14:05:46;;;;;;;;;;;22.30;85.60;;;;;;4287202;33;44957;-81
2021/07/22 14:08:19;;;;;;;;;;;22.40;85.60;;;;;;4298075;33;44467;-83
2021/07/22 14:10:47;;;;;;;;;;;22.40;85.70;;;;;;4298121;33;43486;-83
2021/07/22 14:13:14;;;;;;;;;;;22.40;85.70;;;;;;4297813;33;43990;-82
2021/07/22 14:15:44;;;;;;;;;;;22.50;85.70;;;;;;4297528;33;43405;-84
2021/07/22 14:18:12;;;;;;;;;;;22.50;85.80;;;;;;4298106;33;45194;-86
2021/07/22 14:20:40;;;;;;;;;;;22.50;85.60;;;;;;4297814;33;45389;-84
2021/07/22 14:23:07;;;;;;;;;;;22.50;85.50;;;;;;4297817;33;45067;-84
2021/07/22 14:25:40;;;;;;;;;;;22.50;85.60;;;;;;4297411;33;44228;-84
2021/07/22 14:28:10;;;;;;;;;;;22.60;85.60;;;;;;4297587;33;44280;-85
2021/07/22 14:30:42;;;;;;;;;;;22.60;86.30;;;;;;4286952;33;45058;-84
2021/07/22 14:33:10;;;;;;;;;;;22.60;85.40;;;;;;4297830;33;44964;-84
2021/07/22 14:35:41;;;;;;;;;;;22.60;85.40;;;;;;4297762;33;44251;-84
2021/07/22 14:38:08;;;;;;;;;;;22.70;85.40;;;;;;4297834;33;45824;-84
2021/07/22 14:40:36;;;;;;;;;;;22.60;85.20;;;;;;4297679;33;44913;-85
2021/07/22 14:43:03;;;;;;;;;;;22.70;85.50;;;;;;4297677;33;43707;-84
2021/07/22 14:45:31;;;;;;;;;;;22.70;85.30;;;;;;4297513;33;44633;-84